The Chief — WDC5829 — position and weather

sailwx.info

Track history (hours):
 
Tides and Currents Weather Stations Pressure Air Temp Water Temp Dewpoint Dewpoint Depression Visibility Wind Speed Wind Dir Waves Ship Positions

The Chief

Owner: Tidewater Barge Lines Inc., Vancouver, WA. More information available from US FCC via Universal Licensing System and Coast Guard Vessel Documentation Center.

Last reported at 2017-Nov-18 03:16 UTC. Time now 2017-Dec-17 21:44 UTC.
Position N 45°38' W 121°58'.
Warning: this ship's position is 29 days out of date.

Length 39 m; draft 3.9 m.

Type: Towing. MMSI: 367047080.

Date/timePositionNaut miles runAvg speedWind from/ knotsBaromVisibWave heightAir tempDewpointWater temp
2017-Nov-18 03:16N 45°38' W 121°58'2 4.0
2017-Nov-18 02:47N 45°37' W 121°60'1 2.9
2017-Nov-18 02:29N 45°37' W 122°01'3 5.9
2017-Nov-18 02:00N 45°36' W 122°05'3 6.3
2017-Nov-18 01:28N 45°35' W 122°09'3 6.4
2017-Nov-18 01:00N 45°33' W 122°13'3 6.3
2017-Nov-18 00:30N 45°33' W 122°18'3 5.9
2017-Nov-18 00:00N 45°34' W 122°21'3 5.4
2017-Nov-17 23:30N 45°34' W 122°25'3 5.7
2017-Nov-17 23:00N 45°35' W 122°29'3 6.0
2017-Nov-17 22:30N 45°36' W 122°33'3 6.1
2017-Nov-17 22:00N 45°36' W 122°37'3 6.0
2017-Nov-17 21:31N 45°38' W 122°41'2 4.5
2017-Nov-17 21:00N 45°39' W 122°44'1 1.0
2017-Nov-17 20:28N 45°39' W 122°45'0 0.5
2017-Nov-17 19:59N 45°39' W 122°44'0 0.0
2017-Nov-17 19:29N 45°39' W 122°44'0 0.0
2017-Nov-17 18:59N 45°39' W 122°44'0 0.0
2017-Nov-17 18:29N 45°39' W 122°44'0 0.0
2017-Nov-17 17:59N 45°39' W 122°44'0 0.0
2017-Nov-17 17:29N 45°39' W 122°44'0 0.0
2017-Nov-17 16:59N 45°39' W 122°44'0 0.0
2017-Nov-17 16:23N 45°39' W 122°44'0 0.0
2017-Nov-17 15:59N 45°39' W 122°44'0 0.0
2017-Nov-17 15:30N 45°39' W 122°44'1 1.4
2017-Nov-17 15:00N 45°39' W 122°45'3 6.5
2017-Nov-17 14:30N 45°36' W 122°47'3 5.2
2017-Nov-17 14:01N 45°34' W 122°44'0 0.6
2017-Nov-17 13:31N 45°34' W 122°45'2 4.4
2017-Nov-17 13:00N 45°36' W 122°47'3 6.7
2017-Nov-17 12:31N 45°39' W 122°46'2 3.6
2017-Nov-17 12:01N 45°38' W 122°43'1 2.4
2017-Nov-17 11:31N 45°38' W 122°42'0 0.7
2017-Nov-17 11:01N 45°38' W 122°42'0 0.0
2017-Nov-17 10:30N 45°38' W 122°42'2 4.6
2017-Nov-17 10:00N 45°39' W 122°44'0 0.0
2017-Nov-17 09:31N 45°39' W 122°44'0 0.0
2017-Nov-17 08:52N 45°39' W 122°44'0 0.0
2017-Nov-17 08:31N 45°39' W 122°44'0 0.0
2017-Nov-17 08:00N 45°39' W 122°44'0 0.0
2017-Nov-17 07:30N 45°39' W 122°44'0 0.0
2017-Nov-17 07:00N 45°39' W 122°44'0 0.0
2017-Nov-17 06:31N 45°39' W 122°44'0 0.0
2017-Nov-17 06:01N 45°39' W 122°44'0 0.0
2017-Nov-17 05:30N 45°39' W 122°44'0 0.4
2017-Nov-17 05:01N 45°39' W 122°45'0 1.0
2017-Nov-17 04:30N 45°39' W 122°45'0 0.9
2017-Nov-17 04:01N 45°39' W 122°46'1 1.4
2017-Nov-17 03:28N 45°39' W 122°46'0 0.4
2017-Nov-17 03:00N 45°39' W 122°46'0 0.1
2017-Nov-17 02:31N 45°39' W 122°46'0 0.1
2017-Nov-17 02:01N 45°39' W 122°46'1 2.4
2017-Nov-17 01:30N 45°39' W 122°44'1 2.6
2017-Nov-17 01:01N 45°38' W 122°43'2 3.8
2017-Nov-17 00:30N 45°37' W 122°40'4 9.0
2017-Nov-17 00:01N 45°36' W 122°34'4 8.2
2017-Nov-16 23:30N 45°35' W 122°29'4 8.0
2017-Nov-16 23:01N 45°35' W 122°23'4 8.7
2017-Nov-16 22:30N 45°33' W 122°17'4 8.9
2017-Nov-16 22:00N 45°34' W 122°11'4 8.5
2017-Nov-16 21:30N 45°35' W 122°06'610.2
2017-Nov-16 20:57N 45°38' W 121°58'  
2017-Nov-14 16:46N 45°41' W 121°52'3 8.1
2017-Nov-14 16:27N 45°39' W 121°54'2 3.2
2017-Nov-14 15:48N 45°38' W 121°57'1 4.7
2017-Nov-14 15:30N 45°38' W 121°59'3 5.3
2017-Nov-14 14:58N 45°36' W 122°03'4 8.4
2017-Nov-14 14:29N 45°35' W 122°08'4 8.5
2017-Nov-14 14:00N 45°33' W 122°13'4 8.1
2017-Nov-14 13:30N 45°33' W 122°19'3 7.0
2017-Nov-14 13:00N 45°34' W 122°23'4 7.1
2017-Nov-14 12:30N 45°35' W 122°28'4 7.9
2017-Nov-14 12:01N 45°36' W 122°34'4 8.4
2017-Nov-14 11:30N 45°37' W 122°40'4 7.1
2017-Nov-14 11:00N 45°39' W 122°44'0 0.6
2017-Nov-14 10:30N 45°39' W 122°44'0 0.0
2017-Nov-14 10:00N 45°39' W 122°44'0 0.0
2017-Nov-14 09:31N 45°39' W 122°44'0 0.3
2017-Nov-14 09:01N 45°39' W 122°45'0 0.9
2017-Nov-14 08:30N 45°39' W 122°45'2 3.5
2017-Nov-14 08:01N 45°38' W 122°43'5 9.0
2017-Nov-14 07:31N 45°36' W 122°37'5 9.0
2017-Nov-14 07:00N 45°35' W 122°31'5 9.0
2017-Nov-14 06:31N 45°34' W 122°25'4 8.6
2017-Nov-14 06:00N 45°33' W 122°19'4 8.9
2017-Nov-14 05:30N 45°34' W 122°12'4 8.3
2017-Nov-14 04:59N 45°35' W 122°06'  
2017-Nov-11 23:24N 45°37' W 121°59'2 4.4
2017-Nov-11 22:57N 45°37' W 122°02'4 7.7
2017-Nov-11 22:27N 45°35' W 122°07'3 7.3
2017-Nov-11 22:00N 45°34' W 122°12'4 7.3
2017-Nov-11 21:30N 45°33' W 122°16'3 7.0
2017-Nov-11 21:01N 45°34' W 122°21'3 6.1
2017-Nov-11 20:31N 45°34' W 122°25'3 6.8
2017-Nov-11 20:00N 45°35' W 122°30'4 7.1
2017-Nov-11 19:31N 45°36' W 122°35'4 7.7
2017-Nov-11 19:01N 45°37' W 122°40'4 7.5
2017-Nov-11 18:30N 45°39' W 122°45'0 0.5
2017-Nov-11 18:00N 45°39' W 122°44'0 0.0
2017-Nov-11 17:30N 45°39' W 122°44'0 0.0
2017-Nov-11 17:00N 45°39' W 122°44'0 0.0
2017-Nov-11 16:30N 45°39' W 122°44'0 0.0
2017-Nov-11 16:00N 45°39' W 122°44'0 0.0
2017-Nov-11 15:30N 45°39' W 122°44'0 0.0
2017-Nov-11 14:48N 45°39' W 122°44'0 0.0
2017-Nov-11 14:22N 45°39' W 122°44'0 0.0
2017-Nov-11 14:00N 45°39' W 122°44'0 0.0
2017-Nov-11 13:30N 45°39' W 122°44'0 0.0
2017-Nov-11 13:01N 45°39' W 122°44'0 0.0
2017-Nov-11 12:30N 45°39' W 122°44'0 0.0
2017-Nov-11 12:00N 45°39' W 122°44'0 0.0
2017-Nov-11 11:30N 45°39' W 122°44'0 0.0
2017-Nov-11 11:00N 45°39' W 122°44'0 0.0
2017-Nov-11 10:30N 45°39' W 122°44'0 0.0
2017-Nov-11 10:00N 45°39' W 122°44'0 0.0
2017-Nov-11 09:30N 45°39' W 122°44'0 0.0
2017-Nov-11 08:45N 45°39' W 122°44'0 0.0
2017-Nov-11 08:30N 45°39' W 122°44'0 0.0
2017-Nov-11 08:00N 45°39' W 122°44'0 0.0
2017-Nov-11 07:30N 45°39' W 122°44'0 0.0
2017-Nov-11 07:00N 45°39' W 122°44'0 0.0
2017-Nov-11 06:30N 45°39' W 122°44'0 0.2
2017-Nov-11 06:00N 45°39' W 122°45'1 3.0
2017-Nov-11 05:30N 45°38' W 122°43'0 0.3
2017-Nov-11 05:00N 45°38' W 122°43'4 7.3
2017-Nov-11 04:31N 45°36' W 122°38'4 8.2
2017-Nov-11 04:01N 45°36' W 122°32'4 8.4
2017-Nov-11 03:30N 45°34' W 122°27'4 8.2
2017-Nov-11 03:01N 45°34' W 122°21'4 7.8
2017-Nov-11 02:30N 45°33' W 122°15'4 8.3
2017-Nov-11 02:00N 45°35' W 122°10'4 7.8
2017-Nov-11 01:29N 45°36' W 122°05'6 5.6
2017-Nov-11 00:26N 45°38' W 121°57'3 4.7
2017-Nov-10 23:53N 45°40' W 121°54'  
2017-Nov-08 05:27N 45°36' W 122°03'3 7.5
2017-Nov-08 05:00N 45°35' W 122°07'5 7.0
2017-Nov-08 04:21N 45°33' W 122°13'3 7.2
2017-Nov-08 04:00N 45°33' W 122°17'3 6.8
2017-Nov-08 03:31N 45°34' W 122°21'  
Track history (hours):
 
Tides and Currents Weather Stations Pressure Air Temp Water Temp Dewpoint Dewpoint Depression Visibility Wind Speed Wind Dir Waves Ship Positions

The Chief

Owner: Tidewater Barge Lines Inc., Vancouver, WA. More information available from US FCC via Universal Licensing System and Coast Guard Vessel Documentation Center.

Last reported at 2017-Nov-18 03:16 UTC. Time now 2017-Dec-17 21:44 UTC.
Position N 45°38' W 121°58'.
Warning: this ship's position is 29 days out of date.

Length 39 m; draft 3.9 m.

Type: Towing. MMSI: 367047080.

Date/timePositionNaut miles runAvg speedWind from/ knotsBaromVisibWave heightAir tempDewpointWater temp
2017-Nov-18 03:16N 45°38' W 121°58'2 4.0
2017-Nov-18 02:47N 45°37' W 121°60'1 2.9
2017-Nov-18 02:29N 45°37' W 122°01'3 5.9
2017-Nov-18 02:00N 45°36' W 122°05'3 6.3
2017-Nov-18 01:28N 45°35' W 122°09'3 6.4
2017-Nov-18 01:00N 45°33' W 122°13'3 6.3
2017-Nov-18 00:30N 45°33' W 122°18'3 5.9
2017-Nov-18 00:00N 45°34' W 122°21'3 5.4
2017-Nov-17 23:30N 45°34' W 122°25'3 5.7
2017-Nov-17 23:00N 45°35' W 122°29'3 6.0
2017-Nov-17 22:30N 45°36' W 122°33'3 6.1
2017-Nov-17 22:00N 45°36' W 122°37'3 6.0
2017-Nov-17 21:31N 45°38' W 122°41'2 4.5
2017-Nov-17 21:00N 45°39' W 122°44'1 1.0
2017-Nov-17 20:28N 45°39' W 122°45'0 0.5
2017-Nov-17 19:59N 45°39' W 122°44'0 0.0
2017-Nov-17 19:29N 45°39' W 122°44'0 0.0
2017-Nov-17 18:59N 45°39' W 122°44'0 0.0
2017-Nov-17 18:29N 45°39' W 122°44'0 0.0
2017-Nov-17 17:59N 45°39' W 122°44'0 0.0
2017-Nov-17 17:29N 45°39' W 122°44'0 0.0
2017-Nov-17 16:59N 45°39' W 122°44'0 0.0
2017-Nov-17 16:23N 45°39' W 122°44'0 0.0
2017-Nov-17 15:59N 45°39' W 122°44'0 0.0
2017-Nov-17 15:30N 45°39' W 122°44'1 1.4
2017-Nov-17 15:00N 45°39' W 122°45'3 6.5
2017-Nov-17 14:30N 45°36' W 122°47'3 5.2
2017-Nov-17 14:01N 45°34' W 122°44'0 0.6
2017-Nov-17 13:31N 45°34' W 122°45'2 4.4
2017-Nov-17 13:00N 45°36' W 122°47'3 6.7
2017-Nov-17 12:31N 45°39' W 122°46'2 3.6
2017-Nov-17 12:01N 45°38' W 122°43'1 2.4
2017-Nov-17 11:31N 45°38' W 122°42'0 0.7
2017-Nov-17 11:01N 45°38' W 122°42'0 0.0
2017-Nov-17 10:30N 45°38' W 122°42'2 4.6
2017-Nov-17 10:00N 45°39' W 122°44'0 0.0
2017-Nov-17 09:31N 45°39' W 122°44'0 0.0
2017-Nov-17 08:52N 45°39' W 122°44'0 0.0
2017-Nov-17 08:31N 45°39' W 122°44'0 0.0
2017-Nov-17 08:00N 45°39' W 122°44'0 0.0
2017-Nov-17 07:30N 45°39' W 122°44'0 0.0
2017-Nov-17 07:00N 45°39' W 122°44'0 0.0
2017-Nov-17 06:31N 45°39' W 122°44'0 0.0
2017-Nov-17 06:01N 45°39' W 122°44'0 0.0
2017-Nov-17 05:30N 45°39' W 122°44'0 0.4
2017-Nov-17 05:01N 45°39' W 122°45'0 1.0
2017-Nov-17 04:30N 45°39' W 122°45'0 0.9
2017-Nov-17 04:01N 45°39' W 122°46'1 1.4
2017-Nov-17 03:28N 45°39' W 122°46'0 0.4
2017-Nov-17 03:00N 45°39' W 122°46'0 0.1
2017-Nov-17 02:31N 45°39' W 122°46'0 0.1
2017-Nov-17 02:01N 45°39' W 122°46'1 2.4
2017-Nov-17 01:30N 45°39' W 122°44'1 2.6
2017-Nov-17 01:01N 45°38' W 122°43'2 3.8
2017-Nov-17 00:30N 45°37' W 122°40'4 9.0
2017-Nov-17 00:01N 45°36' W 122°34'4 8.2
2017-Nov-16 23:30N 45°35' W 122°29'4 8.0
2017-Nov-16 23:01N 45°35' W 122°23'4 8.7
2017-Nov-16 22:30N 45°33' W 122°17'4 8.9
2017-Nov-16 22:00N 45°34' W 122°11'4 8.5
2017-Nov-16 21:30N 45°35' W 122°06'610.2
2017-Nov-16 20:57N 45°38' W 121°58'  
2017-Nov-14 16:46N 45°41' W 121°52'3 8.1
2017-Nov-14 16:27N 45°39' W 121°54'2 3.2
2017-Nov-14 15:48N 45°38' W 121°57'1 4.7
2017-Nov-14 15:30N 45°38' W 121°59'3 5.3
2017-Nov-14 14:58N 45°36' W 122°03'4 8.4
2017-Nov-14 14:29N 45°35' W 122°08'4 8.5
2017-Nov-14 14:00N 45°33' W 122°13'4 8.1
2017-Nov-14 13:30N 45°33' W 122°19'3 7.0
2017-Nov-14 13:00N 45°34' W 122°23'4 7.1
2017-Nov-14 12:30N 45°35' W 122°28'4 7.9
2017-Nov-14 12:01N 45°36' W 122°34'4 8.4
2017-Nov-14 11:30N 45°37' W 122°40'4 7.1
2017-Nov-14 11:00N 45°39' W 122°44'0 0.6
2017-Nov-14 10:30N 45°39' W 122°44'0 0.0
2017-Nov-14 10:00N 45°39' W 122°44'0 0.0
2017-Nov-14 09:31N 45°39' W 122°44'0 0.3
2017-Nov-14 09:01N 45°39' W 122°45'0 0.9
2017-Nov-14 08:30N 45°39' W 122°45'2 3.5
2017-Nov-14 08:01N 45°38' W 122°43'5 9.0
2017-Nov-14 07:31N 45°36' W 122°37'5 9.0
2017-Nov-14 07:00N 45°35' W 122°31'5 9.0
2017-Nov-14 06:31N 45°34' W 122°25'4 8.6
2017-Nov-14 06:00N 45°33' W 122°19'4 8.9
2017-Nov-14 05:30N 45°34' W 122°12'4 8.3
2017-Nov-14 04:59N 45°35' W 122°06'  
2017-Nov-11 23:24N 45°37' W 121°59'2 4.4
2017-Nov-11 22:57N 45°37' W 122°02'4 7.7
2017-Nov-11 22:27N 45°35' W 122°07'3 7.3
2017-Nov-11 22:00N 45°34' W 122°12'4 7.3
2017-Nov-11 21:30N 45°33' W 122°16'3 7.0
2017-Nov-11 21:01N 45°34' W 122°21'3 6.1
2017-Nov-11 20:31N 45°34' W 122°25'3 6.8
2017-Nov-11 20:00N 45°35' W 122°30'4 7.1
2017-Nov-11 19:31N 45°36' W 122°35'4 7.7
2017-Nov-11 19:01N 45°37' W 122°40'4 7.5
2017-Nov-11 18:30N 45°39' W 122°45'0 0.5
2017-Nov-11 18:00N 45°39' W 122°44'0 0.0
2017-Nov-11 17:30N 45°39' W 122°44'0 0.0
2017-Nov-11 17:00N 45°39' W 122°44'0 0.0
2017-Nov-11 16:30N 45°39' W 122°44'0 0.0
2017-Nov-11 16:00N 45°39' W 122°44'0 0.0
2017-Nov-11 15:30N 45°39' W 122°44'0 0.0
2017-Nov-11 14:48N 45°39' W 122°44'0 0.0
2017-Nov-11 14:22N 45°39' W 122°44'0 0.0
2017-Nov-11 14:00N 45°39' W 122°44'0 0.0
2017-Nov-11 13:30N 45°39' W 122°44'0 0.0
2017-Nov-11 13:01N 45°39' W 122°44'0 0.0
2017-Nov-11 12:30N 45°39' W 122°44'0 0.0
2017-Nov-11 12:00N 45°39' W 122°44'0 0.0
2017-Nov-11 11:30N 45°39' W 122°44'0 0.0
2017-Nov-11 11:00N 45°39' W 122°44'0 0.0
2017-Nov-11 10:30N 45°39' W 122°44'0 0.0
2017-Nov-11 10:00N 45°39' W 122°44'0 0.0
2017-Nov-11 09:30N 45°39' W 122°44'0 0.0
2017-Nov-11 08:45N 45°39' W 122°44'0 0.0
2017-Nov-11 08:30N 45°39' W 122°44'0 0.0
2017-Nov-11 08:00N 45°39' W 122°44'0 0.0
2017-Nov-11 07:30N 45°39' W 122°44'0 0.0
2017-Nov-11 07:00N 45°39' W 122°44'0 0.0
2017-Nov-11 06:30N 45°39' W 122°44'0 0.2
2017-Nov-11 06:00N 45°39' W 122°45'1 3.0
2017-Nov-11 05:30N 45°38' W 122°43'0 0.3
2017-Nov-11 05:00N 45°38' W 122°43'4 7.3
2017-Nov-11 04:31N 45°36' W 122°38'4 8.2
2017-Nov-11 04:01N 45°36' W 122°32'4 8.4
2017-Nov-11 03:30N 45°34' W 122°27'4 8.2
2017-Nov-11 03:01N 45°34' W 122°21'4 7.8
2017-Nov-11 02:30N 45°33' W 122°15'4 8.3
2017-Nov-11 02:00N 45°35' W 122°10'4 7.8
2017-Nov-11 01:29N 45°36' W 122°05'6 5.6
2017-Nov-11 00:26N 45°38' W 121°57'3 4.7
2017-Nov-10 23:53N 45°40' W 121°54'  
2017-Nov-08 05:27N 45°36' W 122°03'3 7.5
2017-Nov-08 05:00N 45°35' W 122°07'5 7.0
2017-Nov-08 04:21N 45°33' W 122°13'3 7.2
2017-Nov-08 04:00N 45°33' W 122°17'3 6.8
2017-Nov-08 03:31N 45°34' W 122°21'  

Dump ship's entire track history